sensor_id;sensor_type;location;lat;lon;timestamp;temperature;humidity
43772;HTU21D;59066;54.782;32.024;2023-02-28T00:01:13;-5.87;79.01
43772;HTU21D;59066;54.782;32.024;2023-02-28T00:03:41;-5.88;78.94
43772;HTU21D;59066;54.782;32.024;2023-02-28T00:06:09;-5.84;79.21
43772;HTU21D;59066;54.782;32.024;2023-02-28T00:08:37;-5.92;79.01
43772;HTU21D;59066;54.782;32.024;2023-02-28T00:11:08;-5.91;79.33
43772;HTU21D;59066;54.782;32.024;2023-02-28T00:13:38;-5.86;79.24
43772;HTU21D;59066;54.782;32.024;2023-02-28T00:16:07;-5.88;79.55
43772;HTU21D;59066;54.782;32.024;2023-02-28T00:18:36;-5.87;79.37
43772;HTU21D;59066;54.782;32.024;2023-02-28T00:21:04;-5.89;79.45
43772;HTU21D;59066;54.782;32.024;2023-02-28T00:23:32;-5.90;79.44
43772;HTU21D;59066;54.782;32.024;2023-02-28T00:26:00;-5.87;79.56
43772;HTU21D;59066;54.782;32.024;2023-02-28T00:28:28;-5.79;79.82
43772;HTU21D;59066;54.782;32.024;2023-02-28T00:30:58;-5.79;79.58
43772;HTU21D;59066;54.782;32.024;2023-02-28T00:33:28;-5.78;79.98
43772;HTU21D;59066;54.782;32.024;2023-02-28T00:36:07;-5.81;79.24
43772;HTU21D;59066;54.782;32.024;2023-02-28T00:38:36;-5.94;78.84
43772;HTU21D;59066;54.782;32.024;2023-02-28T00:41:03;-6.07;79.54
43772;HTU21D;59066;54.782;32.024;2023-02-28T00:43:33;-6.14;79.93
43772;HTU21D;59066;54.782;32.024;2023-02-28T00:46:01;-6.11;79.72
43772;HTU21D;59066;54.782;32.024;2023-02-28T00:48:29;-6.21;79.86
43772;HTU21D;59066;54.782;32.024;2023-02-28T00:50:57;-6.20;80.15
43772;HTU21D;59066;54.782;32.024;2023-02-28T00:53:24;-6.20;80.28
43772;HTU21D;59066;54.782;32.024;2023-02-28T00:55:52;-6.19;80.17
43772;HTU21D;59066;54.782;32.024;2023-02-28T00:58:20;-6.14;80.30
43772;HTU21D;59066;54.782;32.024;2023-02-28T01:00:47;-6.16;79.90
43772;HTU21D;59066;54.782;32.024;2023-02-28T01:03:17;-6.19;79.59
43772;HTU21D;59066;54.782;32.024;2023-02-28T01:05:45;-6.24;79.98
43772;HTU21D;59066;54.782;32.024;2023-02-28T01:08:13;-6.30;79.84
43772;HTU21D;59066;54.782;32.024;2023-02-28T01:10:42;-6.30;80.51
43772;HTU21D;59066;54.782;32.024;2023-02-28T01:13:09;-6.21;80.19
43772;HTU21D;59066;54.782;32.024;2023-02-28T01:15:39;-6.18;80.69
43772;HTU21D;59066;54.782;32.024;2023-02-28T01:18:08;-6.28;80.40
43772;HTU21D;59066;54.782;32.024;2023-02-28T01:20:37;-6.19;80.33
43772;HTU21D;59066;54.782;32.024;2023-02-28T01:23:05;-6.29;80.29
43772;HTU21D;59066;54.782;32.024;2023-02-28T01:25:36;-6.30;80.49
43772;HTU21D;59066;54.782;32.024;2023-02-28T01:28:04;-6.27;80.56
43772;HTU21D;59066;54.782;32.024;2023-02-28T01:30:33;-6.27;80.58
43772;HTU21D;59066;54.782;32.024;2023-02-28T01:33:01;-6.24;80.84
43772;HTU21D;59066;54.782;32.024;2023-02-28T01:35:32;-6.26;80.68
43772;HTU21D;59066;54.782;32.024;2023-02-28T01:38:01;-6.21;80.87
43772;HTU21D;59066;54.782;32.024;2023-02-28T01:40:46;-6.26;80.58
43772;HTU21D;59066;54.782;32.024;2023-02-28T01:45:52;-6.22;80.78
43772;HTU21D;59066;54.782;32.024;2023-02-28T01:48:30;-6.20;81.03
43772;HTU21D;59066;54.782;32.024;2023-02-28T01:51:02;-6.22;80.76
43772;HTU21D;59066;54.782;32.024;2023-02-28T01:53:36;-6.20;80.87
43772;HTU21D;59066;54.782;32.024;2023-02-28T01:56:06;-6.18;81.02
43772;HTU21D;59066;54.782;32.024;2023-02-28T01:58:36;-6.17;80.97
43772;HTU21D;59066;54.782;32.024;2023-02-28T02:01:04;-6.16;80.52
43772;HTU21D;59066;54.782;32.024;2023-02-28T02:03:32;-6.15;80.81
43772;HTU21D;59066;54.782;32.024;2023-02-28T02:06:02;-6.13;80.44
43772;HTU21D;59066;54.782;32.024;2023-02-28T02:08:30;-6.17;80.68
43772;HTU21D;59066;54.782;32.024;2023-02-28T02:11:01;-6.26;80.64
43772;HTU21D;59066;54.782;32.024;2023-02-28T02:13:55;-6.24;81.16
43772;HTU21D;59066;54.782;32.024;2023-02-28T02:16:36;-6.27;81.07
43772;HTU21D;59066;54.782;32.024;2023-02-28T02:20:02;-6.21;81.19
43772;HTU21D;59066;54.782;32.024;2023-02-28T02:36:24;-6.15;80.65
43772;HTU21D;59066;54.782;32.024;2023-02-28T02:41:53;-6.12;81.08
43772;HTU21D;59066;54.782;32.024;2023-02-28T02:44:28;-6.20;80.91
43772;HTU21D;59066;54.782;32.024;2023-02-28T02:47:03;-6.16;81.19
43772;HTU21D;59066;54.782;32.024;2023-02-28T02:49:36;-6.15;80.56
43772;HTU21D;59066;54.782;32.024;2023-02-28T02:52:08;-6.19;80.89
43772;HTU21D;59066;54.782;32.024;2023-02-28T02:54:40;-6.14;80.85
43772;HTU21D;59066;54.782;32.024;2023-02-28T02:57:23;-6.19;80.83
43772;HTU21D;59066;54.782;32.024;2023-02-28T02:59:54;-6.20;80.75
43772;HTU21D;59066;54.782;32.024;2023-02-28T03:02:22;-6.19;81.02
43772;HTU21D;59066;54.782;32.024;2023-02-28T03:04:53;-6.17;80.62
43772;HTU21D;59066;54.782;32.024;2023-02-28T03:07:21;-6.12;80.92
43772;HTU21D;59066;54.782;32.024;2023-02-28T03:09:53;-6.05;80.94
43772;HTU21D;59066;54.782;32.024;2023-02-28T03:15:27;-6.02;80.37
43772;HTU21D;59066;54.782;32.024;2023-02-28T03:18:25;-6.04;80.45
43772;HTU21D;59066;54.782;32.024;2023-02-28T03:23:48;-6.11;80.47
43772;HTU21D;59066;54.782;32.024;2023-02-28T03:26:23;-6.09;80.41
43772;HTU21D;59066;54.782;32.024;2023-02-28T03:31:34;-5.99;80.31
43772;HTU21D;59066;54.782;32.024;2023-02-28T03:34:24;-6.05;80.24
43772;HTU21D;59066;54.782;32.024;2023-02-28T03:36:57;-6.02;80.07
43772;HTU21D;59066;54.782;32.024;2023-02-28T03:39:30;-5.99;80.25
43772;HTU21D;59066;54.782;32.024;2023-02-28T03:42:02;-6.00;80.33
43772;HTU21D;59066;54.782;32.024;2023-02-28T03:44:36;-5.98;80.21
43772;HTU21D;59066;54.782;32.024;2023-02-28T03:47:29;-5.99;80.12
43772;HTU21D;59066;54.782;32.024;2023-02-28T03:50:07;-5.98;80.14
43772;HTU21D;59066;54.782;32.024;2023-02-28T03:52:36;-5.99;80.14
43772;HTU21D;59066;54.782;32.024;2023-02-28T03:55:09;-6.02;79.98
43772;HTU21D;59066;54.782;32.024;2023-02-28T04:00:41;-6.03;79.89
43772;HTU21D;59066;54.782;32.024;2023-02-28T04:03:10;-6.02;80.09
43772;HTU21D;59066;54.782;32.024;2023-02-28T04:05:50;-5.96;80.31
43772;HTU21D;59066;54.782;32.024;2023-02-28T04:08:18;-6.01;79.82
43772;HTU21D;59066;54.782;32.024;2023-02-28T04:10:51;-6.01;79.72
43772;HTU21D;59066;54.782;32.024;2023-02-28T04:13:19;-5.97;79.94
43772;HTU21D;59066;54.782;32.024;2023-02-28T04:15:46;-5.99;79.37
43772;HTU21D;59066;54.782;32.024;2023-02-28T04:18:14;-6.01;79.43
43772;HTU21D;59066;54.782;32.024;2023-02-28T04:20:41;-6.03;79.23
43772;HTU21D;59066;54.782;32.024;2023-02-28T04:23:08;-6.13;79.21
43772;HTU21D;59066;54.782;32.024;2023-02-28T04:25:36;-6.19;79.07
43772;HTU21D;59066;54.782;32.024;2023-02-28T04:28:03;-6.24;79.08
43772;HTU21D;59066;54.782;32.024;2023-02-28T04:30:31;-6.31;79.11
43772;HTU21D;59066;54.782;32.024;2023-02-28T04:33:00;-6.33;79.20
43772;HTU21D;59066;54.782;32.024;2023-02-28T04:35:28;-6.37;79.20
43772;HTU21D;59066;54.782;32.024;2023-02-28T04:37:55;-6.36;79.19
43772;HTU21D;59066;54.782;32.024;2023-02-28T04:40:22;-6.32;79.10
43772;HTU21D;59066;54.782;32.024;2023-02-28T04:42:50;-6.31;79.14
43772;HTU21D;59066;54.782;32.024;2023-02-28T04:45:17;-6.35;78.69
43772;HTU21D;59066;54.782;32.024;2023-02-28T04:47:44;-6.39;79.11
43772;HTU21D;59066;54.782;32.024;2023-02-28T04:50:12;-6.38;79.18
43772;HTU21D;59066;54.782;32.024;2023-02-28T04:52:39;-6.37;79.04
43772;HTU21D;59066;54.782;32.024;2023-02-28T04:55:07;-6.35;79.21
43772;HTU21D;59066;54.782;32.024;2023-02-28T04:57:34;-6.34;78.96
43772;HTU21D;59066;54.782;32.024;2023-02-28T05:00:03;-6.35;79.03
43772;HTU21D;59066;54.782;32.024;2023-02-28T05:02:34;-6.30;79.11
43772;HTU21D;59066;54.782;32.024;2023-02-28T05:05:02;-6.29;79.18
43772;HTU21D;59066;54.782;32.024;2023-02-28T05:07:30;-6.26;79.12
43772;HTU21D;59066;54.782;32.024;2023-02-28T05:09:57;-6.30;78.93
43772;HTU21D;59066;54.782;32.024;2023-02-28T05:12:25;-6.32;79.20
43772;HTU21D;59066;54.782;32.024;2023-02-28T05:14:53;-6.24;79.29
43772;HTU21D;59066;54.782;32.024;2023-02-28T05:17:20;-6.29;78.96
43772;HTU21D;59066;54.782;32.024;2023-02-28T05:19:47;-6.31;79.00
43772;HTU21D;59066;54.782;32.024;2023-02-28T05:22:15;-6.30;79.14
43772;HTU21D;59066;54.782;32.024;2023-02-28T05:24:46;-6.27;78.94
43772;HTU21D;59066;54.782;32.024;2023-02-28T05:27:13;-6.31;79.21
43772;HTU21D;59066;54.782;32.024;2023-02-28T05:29:40;-6.26;78.80
43772;HTU21D;59066;54.782;32.024;2023-02-28T05:32:11;-6.26;79.06
43772;HTU21D;59066;54.782;32.024;2023-02-28T05:34:39;-6.22;78.95
43772;HTU21D;59066;54.782;32.024;2023-02-28T05:37:14;-6.22;79.03
43772;HTU21D;59066;54.782;32.024;2023-02-28T05:39:42;-6.21;78.70
43772;HTU21D;59066;54.782;32.024;2023-02-28T05:42:10;-6.20;78.93
43772;HTU21D;59066;54.782;32.024;2023-02-28T05:44:37;-6.16;78.71
43772;HTU21D;59066;54.782;32.024;2023-02-28T05:47:05;-6.12;79.03
43772;HTU21D;59066;54.782;32.024;2023-02-28T05:49:32;-6.11;78.57
43772;HTU21D;59066;54.782;32.024;2023-02-28T05:52:00;-6.09;78.59
43772;HTU21D;59066;54.782;32.024;2023-02-28T05:54:27;-6.06;78.72
43772;HTU21D;59066;54.782;32.024;2023-02-28T05:56:54;-6.06;78.74
43772;HTU21D;59066;54.782;32.024;2023-02-28T05:59:22;-6.07;78.81
43772;HTU21D;59066;54.782;32.024;2023-02-28T06:01:49;-6.03;78.63
43772;HTU21D;59066;54.782;32.024;2023-02-28T06:04:19;-5.98;78.46
43772;HTU21D;59066;54.782;32.024;2023-02-28T06:06:58;-5.98;78.49
43772;HTU21D;59066;54.782;32.024;2023-02-28T06:09:25;-5.94;78.37
43772;HTU21D;59066;54.782;32.024;2023-02-28T06:11:53;-5.86;78.75
43772;HTU21D;59066;54.782;32.024;2023-02-28T06:14:21;-5.78;78.66
43772;HTU21D;59066;54.782;32.024;2023-02-28T06:16:48;-5.76;78.21
43772;HTU21D;59066;54.782;32.024;2023-02-28T06:19:16;-5.71;78.21
43772;HTU21D;59066;54.782;32.024;2023-02-28T06:21:44;-5.73;78.14
43772;HTU21D;59066;54.782;32.024;2023-02-28T06:24:12;-5.67;78.54
43772;HTU21D;59066;54.782;32.024;2023-02-28T06:26:39;-5.61;77.76
43772;HTU21D;59066;54.782;32.024;2023-02-28T06:29:07;-5.64;77.82
43772;HTU21D;59066;54.782;32.024;2023-02-28T06:31:34;-5.68;77.84
43772;HTU21D;59066;54.782;32.024;2023-02-28T06:34:02;-5.61;77.98
43772;HTU21D;59066;54.782;32.024;2023-02-28T06:36:29;-5.63;77.57
43772;HTU21D;59066;54.782;32.024;2023-02-28T06:38:57;-5.60;77.61
43772;HTU21D;59066;54.782;32.024;2023-02-28T06:41:26;-5.52;77.60
43772;HTU21D;59066;54.782;32.024;2023-02-28T06:43:55;-5.45;77.69
43772;HTU21D;59066;54.782;32.024;2023-02-28T06:46:22;-5.50;77.10
43772;HTU21D;59066;54.782;32.024;2023-02-28T06:48:50;-5.45;77.09
43772;HTU21D;59066;54.782;32.024;2023-02-28T06:51:19;-5.47;77.23
43772;HTU21D;59066;54.782;32.024;2023-02-28T06:53:49;-5.48;76.91
43772;HTU21D;59066;54.782;32.024;2023-02-28T06:56:17;-5.44;76.89
43772;HTU21D;59066;54.782;32.024;2023-02-28T06:58:49;-5.41;76.79
43772;HTU21D;59066;54.782;32.024;2023-02-28T07:01:17;-5.41;76.48
43772;HTU21D;59066;54.782;32.024;2023-02-28T07:03:45;-5.41;76.47
43772;HTU21D;59066;54.782;32.024;2023-02-28T07:06:13;-5.42;76.26
43772;HTU21D;59066;54.782;32.024;2023-02-28T07:08:40;-5.33;76.77
43772;HTU21D;59066;54.782;32.024;2023-02-28T07:11:08;-5.33;76.37
43772;HTU21D;59066;54.782;32.024;2023-02-28T07:13:36;-5.33;76.24
43772;HTU21D;59066;54.782;32.024;2023-02-28T07:16:06;-5.31;76.26
43772;HTU21D;59066;54.782;32.024;2023-02-28T07:18:35;-5.25;76.27
43772;HTU21D;59066;54.782;32.024;2023-02-28T07:21:03;-5.23;75.91
43772;HTU21D;59066;54.782;32.024;2023-02-28T07:23:31;-5.12;75.89
43772;HTU21D;59066;54.782;32.024;2023-02-28T07:25:59;-5.05;75.60
43772;HTU21D;59066;54.782;32.024;2023-02-28T07:28:26;-5.01;75.41
43772;HTU21D;59066;54.782;32.024;2023-02-28T07:30:54;-4.95;75.31
43772;HTU21D;59066;54.782;32.024;2023-02-28T07:33:21;-4.93;74.73
43772;HTU21D;59066;54.782;32.024;2023-02-28T07:35:48;-4.91;74.59
43772;HTU21D;59066;54.782;32.024;2023-02-28T07:38:16;-4.79;74.50
43772;HTU21D;59066;54.782;32.024;2023-02-28T07:40:44;-4.79;74.38
43772;HTU21D;59066;54.782;32.024;2023-02-28T07:43:11;-4.74;74.08
43772;HTU21D;59066;54.782;32.024;2023-02-28T07:45:39;-4.71;73.59
43772;HTU21D;59066;54.782;32.024;2023-02-28T07:48:06;-4.60;74.00
43772;HTU21D;59066;54.782;32.024;2023-02-28T07:50:33;-4.58;73.54
43772;HTU21D;59066;54.782;32.024;2023-02-28T07:53:02;-4.53;72.96
43772;HTU21D;59066;54.782;32.024;2023-02-28T07:55:29;-4.50;72.70
43772;HTU21D;59066;54.782;32.024;2023-02-28T07:57:57;-4.38;72.54
43772;HTU21D;59066;54.782;32.024;2023-02-28T08:00:25;-4.36;71.88
43772;HTU21D;59066;54.782;32.024;2023-02-28T08:02:52;-4.21;71.51
43772;HTU21D;59066;54.782;32.024;2023-02-28T08:05:20;-4.17;71.30
43772;HTU21D;59066;54.782;32.024;2023-02-28T08:07:49;-4.06;70.71
43772;HTU21D;59066;54.782;32.024;2023-02-28T08:10:17;-4.02;70.46
43772;HTU21D;59066;54.782;32.024;2023-02-28T08:12:44;-3.87;70.70
43772;HTU21D;59066;54.782;32.024;2023-02-28T08:15:11;-3.77;70.10
43772;HTU21D;59066;54.782;32.024;2023-02-28T08:17:39;-3.61;69.83
43772;HTU21D;59066;54.782;32.024;2023-02-28T08:20:07;-3.49;69.44
43772;HTU21D;59066;54.782;32.024;2023-02-28T08:22:36;-3.26;69.74
43772;HTU21D;59066;54.782;32.024;2023-02-28T08:25:04;-2.96;69.55
43772;HTU21D;59066;54.782;32.024;2023-02-28T08:27:31;-2.83;69.20
43772;HTU21D;59066;54.782;32.024;2023-02-28T08:29:59;-2.74;68.17
43772;HTU21D;59066;54.782;32.024;2023-02-28T08:32:26;-2.63;67.90
43772;HTU21D;59066;54.782;32.024;2023-02-28T08:34:56;-2.52;68.02
43772;HTU21D;59066;54.782;32.024;2023-02-28T08:37:24;-2.47;67.77
43772;HTU21D;59066;54.782;32.024;2023-02-28T08:39:51;-2.37;67.77
43772;HTU21D;59066;54.782;32.024;2023-02-28T08:42:22;-2.21;67.81
43772;HTU21D;59066;54.782;32.024;2023-02-28T08:44:50;-2.13;67.20
43772;HTU21D;59066;54.782;32.024;2023-02-28T08:47:18;-2.10;67.33
43772;HTU21D;59066;54.782;32.024;2023-02-28T08:49:45;-1.94;66.91
43772;HTU21D;59066;54.782;32.024;2023-02-28T08:52:13;-2.01;66.91
43772;HTU21D;59066;54.782;32.024;2023-02-28T08:54:40;-1.97;67.30
43772;HTU21D;59066;54.782;32.024;2023-02-28T08:57:08;-1.92;66.76
43772;HTU21D;59066;54.782;32.024;2023-02-28T08:59:35;-1.84;67.25
43772;HTU21D;59066;54.782;32.024;2023-02-28T09:02:03;-1.78;66.69
43772;HTU21D;59066;54.782;32.024;2023-02-28T09:04:30;-1.78;66.81
43772;HTU21D;59066;54.782;32.024;2023-02-28T09:06:58;-1.64;66.65
43772;HTU21D;59066;54.782;32.024;2023-02-28T09:09:25;-1.62;66.61
43772;HTU21D;59066;54.782;32.024;2023-02-28T09:11:55;-1.59;66.32
43772;HTU21D;59066;54.782;32.024;2023-02-28T09:14:23;-1.53;66.49
43772;HTU21D;59066;54.782;32.024;2023-02-28T09:16:50;-1.47;66.36
43772;HTU21D;59066;54.782;32.024;2023-02-28T09:19:18;-1.39;66.36
43772;HTU21D;59066;54.782;32.024;2023-02-28T09:21:45;-1.35;65.89
43772;HTU21D;59066;54.782;32.024;2023-02-28T09:24:13;-1.27;65.91
43772;HTU21D;59066;54.782;32.024;2023-02-28T09:26:42;-1.26;66.17
43772;HTU21D;59066;54.782;32.024;2023-02-28T09:29:29;-1.18;66.11
43772;HTU21D;59066;54.782;32.024;2023-02-28T09:31:56;-1.03;66.14
43772;HTU21D;59066;54.782;32.024;2023-02-28T09:34:26;-0.93;66.11
43772;HTU21D;59066;54.782;32.024;2023-02-28T09:36:54;-0.93;65.98
43772;HTU21D;59066;54.782;32.024;2023-02-28T09:39:22;-0.84;65.58
43772;HTU21D;59066;54.782;32.024;2023-02-28T09:41:54;-0.77;65.75
43772;HTU21D;59066;54.782;32.024;2023-02-28T09:44:43;-0.73;65.68
43772;HTU21D;59066;54.782;32.024;2023-02-28T09:47:32;-0.73;65.55
43772;HTU21D;59066;54.782;32.024;2023-02-28T09:50:20;-0.69;65.92
43772;HTU21D;59066;54.782;32.024;2023-02-28T09:52:50;-0.62;65.89
43772;HTU21D;59066;54.782;32.024;2023-02-28T09:55:33;-0.46;65.35
43772;HTU21D;59066;54.782;32.024;2023-02-28T09:58:45;-0.69;65.30
43772;HTU21D;59066;54.782;32.024;2023-02-28T10:06:58;-0.65;66.43
43772;HTU21D;59066;54.782;32.024;2023-02-28T10:09:36;-0.57;66.43
43772;HTU21D;59066;54.782;32.024;2023-02-28T10:12:05;-0.58;66.46
43772;HTU21D;59066;54.782;32.024;2023-02-28T10:14:34;-0.43;66.51
43772;HTU21D;59066;54.782;32.024;2023-02-28T10:17:10;-0.28;66.50
43772;HTU21D;59066;54.782;32.024;2023-02-28T10:19:51;-0.24;66.33
43772;HTU21D;59066;54.782;32.024;2023-02-28T10:23:02;-0.26;66.48
43772;HTU21D;59066;54.782;32.024;2023-02-28T10:25:36;-0.21;66.65
43772;HTU21D;59066;54.782;32.024;2023-02-28T10:28:15;-0.17;66.98
43772;HTU21D;59066;54.782;32.024;2023-02-28T10:30:50;-0.23;66.43
43772;HTU21D;59066;54.782;32.024;2023-02-28T10:33:32;-0.25;67.12
43772;HTU21D;59066;54.782;32.024;2023-02-28T10:36:02;-0.25;67.12
43772;HTU21D;59066;54.782;32.024;2023-02-28T10:38:36;-0.17;67.03
43772;HTU21D;59066;54.782;32.024;2023-02-28T10:41:13;-0.31;66.73
43772;HTU21D;59066;54.782;32.024;2023-02-28T10:43:43;-0.41;66.95
43772;HTU21D;59066;54.782;32.024;2023-02-28T10:46:18;-0.43;67.34
43772;HTU21D;59066;54.782;32.024;2023-02-28T10:49:13;-0.30;67.59
43772;HTU21D;59066;54.782;32.024;2023-02-28T10:51:41;-0.21;67.10
43772;HTU21D;59066;54.782;32.024;2023-02-28T10:54:18;-0.24;66.98
43772;HTU21D;59066;54.782;32.024;2023-02-28T10:56:45;-0.24;66.77
43772;HTU21D;59066;54.782;32.024;2023-02-28T10:59:42;-0.09;66.68
43772;HTU21D;59066;54.782;32.024;2023-02-28T11:02:42;-0.02;65.78
43772;HTU21D;59066;54.782;32.024;2023-02-28T11:05:31;-0.06;65.95
43772;HTU21D;59066;54.782;32.024;2023-02-28T11:08:16;0.03;66.14
43772;HTU21D;59066;54.782;32.024;2023-02-28T11:10:53;0.04;65.84
43772;HTU21D;59066;54.782;32.024;2023-02-28T11:13:26;-0.02;66.07
43772;HTU21D;59066;54.782;32.024;2023-02-28T11:15:56;-0.01;66.02
43772;HTU21D;59066;54.782;32.024;2023-02-28T11:21:02;-0.16;66.34
43772;HTU21D;59066;54.782;32.024;2023-02-28T11:23:33;-0.16;66.46
43772;HTU21D;59066;54.782;32.024;2023-02-28T11:26:04;-0.29;66.68
43772;HTU21D;59066;54.782;32.024;2023-02-28T11:28:40;-0.35;67.17
43772;HTU21D;59066;54.782;32.024;2023-02-28T11:31:18;-0.42;67.74
43772;HTU21D;59066;54.782;32.024;2023-02-28T11:36:30;-0.46;67.77
43772;HTU21D;59066;54.782;32.024;2023-02-28T11:39:08;-0.58;68.37
43772;HTU21D;59066;54.782;32.024;2023-02-28T11:46:18;-0.50;69.32
43772;HTU21D;59066;54.782;32.024;2023-02-28T11:48:29;-0.35;69.57
43772;HTU21D;59066;54.782;32.024;2023-02-28T11:57:08;-0.28;69.45
43772;HTU21D;59066;54.782;32.024;2023-02-28T12:02:24;-0.30;70.80
43772;HTU21D;59066;54.782;32.024;2023-02-28T12:04:55;-0.27;71.03
43772;HTU21D;59066;54.782;32.024;2023-02-28T12:07:50;-0.19;71.05
43772;HTU21D;59066;54.782;32.024;2023-02-28T12:10:26;-0.10;70.77
43772;HTU21D;59066;54.782;32.024;2023-02-28T12:13:10;-0.02;71.23
43772;HTU21D;59066;54.782;32.024;2023-02-28T12:27:14;0.07;72.48
43772;HTU21D;59066;54.782;32.024;2023-02-28T12:29:50;0.05;72.25
43772;HTU21D;59066;54.782;32.024;2023-02-28T12:32:27;0.07;72.58
43772;HTU21D;59066;54.782;32.024;2023-02-28T12:37:50;0.14;73.29
43772;HTU21D;59066;54.782;32.024;2023-02-28T12:40:23;0.20;73.26
43772;HTU21D;59066;54.782;32.024;2023-02-28T12:42:58;0.25;73.15
43772;HTU21D;59066;54.782;32.024;2023-02-28T12:45:46;0.28;73.25
43772;HTU21D;59066;54.782;32.024;2023-02-28T12:48:21;0.28;73.55
43772;HTU21D;59066;54.782;32.024;2023-02-28T12:50:51;0.32;73.53
43772;HTU21D;59066;54.782;32.024;2023-02-28T12:53:32;0.35;73.65
43772;HTU21D;59066;54.782;32.024;2023-02-28T12:56:31;0.35;73.61
43772;HTU21D;59066;54.782;32.024;2023-02-28T12:59:25;0.34;73.59
43772;HTU21D;59066;54.782;32.024;2023-02-28T13:10:00;0.34;74.15
43772;HTU21D;59066;54.782;32.024;2023-02-28T13:12:29;0.31;74.30
43772;HTU21D;59066;54.782;32.024;2023-02-28T13:15:08;0.37;74.44
43772;HTU21D;59066;54.782;32.024;2023-02-28T13:17:40;0.30;74.99
43772;HTU21D;59066;54.782;32.024;2023-02-28T13:20:23;0.29;74.98
43772;HTU21D;59066;54.782;32.024;2023-02-28T13:22:53;0.31;74.98
43772;HTU21D;59066;54.782;32.024;2023-02-28T13:27:53;0.27;75.60
43772;HTU21D;59066;54.782;32.024;2023-02-28T13:46:31;0.32;76.74
43772;HTU21D;59066;54.782;32.024;2023-02-28T13:49:19;0.38;76.70
43772;HTU21D;59066;54.782;32.024;2023-02-28T13:57:33;0.42;77.31
43772;HTU21D;59066;54.782;32.024;2023-02-28T14:05:27;0.44;78.44
43772;HTU21D;59066;54.782;32.024;2023-02-28T14:07:59;0.44;79.20
43772;HTU21D;59066;54.782;32.024;2023-02-28T14:10:44;0.46;79.45
43772;HTU21D;59066;54.782;32.024;2023-02-28T14:16:02;0.47;80.56
43772;HTU21D;59066;54.782;32.024;2023-02-28T14:18:36;0.40;81.14
43772;HTU21D;59066;54.782;32.024;2023-02-28T14:23:38;0.36;81.87
43772;HTU21D;59066;54.782;32.024;2023-02-28T14:31:13;0.33;82.96
43772;HTU21D;59066;54.782;32.024;2023-02-28T14:33:48;0.30;83.56
43772;HTU21D;59066;54.782;32.024;2023-02-28T14:36:36;0.35;83.63
43772;HTU21D;59066;54.782;32.024;2023-02-28T14:39:14;0.35;83.89
43772;HTU21D;59066;54.782;32.024;2023-02-28T14:41:43;0.32;83.78
43772;HTU21D;59066;54.782;32.024;2023-02-28T14:44:25;0.29;84.17
43772;HTU21D;59066;54.782;32.024;2023-02-28T14:46:59;0.29;84.79
43772;HTU21D;59066;54.782;32.024;2023-02-28T14:49:36;0.28;85.13
43772;HTU21D;59066;54.782;32.024;2023-02-28T14:52:20;0.27;85.76
43772;HTU21D;59066;54.782;32.024;2023-02-28T14:54:54;0.25;85.77
43772;HTU21D;59066;54.782;32.024;2023-02-28T14:57:28;0.25;85.84
43772;HTU21D;59066;54.782;32.024;2023-02-28T15:00:16;0.21;86.53
43772;HTU21D;59066;54.782;32.024;2023-02-28T15:02:43;0.30;86.52
43772;HTU21D;59066;54.782;32.024;2023-02-28T15:07:48;0.27;86.72
43772;HTU21D;59066;54.782;32.024;2023-02-28T15:15:20;0.28;87.30
43772;HTU21D;59066;54.782;32.024;2023-02-28T15:17:56;0.25;87.35
43772;HTU21D;59066;54.782;32.024;2023-02-28T15:20:25;0.27;87.45
43772;HTU21D;59066;54.782;32.024;2023-02-28T15:22:54;0.24;87.72
43772;HTU21D;59066;54.782;32.024;2023-02-28T15:25:23;0.27;87.70
43772;HTU21D;59066;54.782;32.024;2023-02-28T15:27:55;0.30;87.95
43772;HTU21D;59066;54.782;32.024;2023-02-28T15:30:27;0.25;87.84
43772;HTU21D;59066;54.782;32.024;2023-02-28T15:35:35;0.29;87.96
43772;HTU21D;59066;54.782;32.024;2023-02-28T15:38:13;0.31;87.97
43772;HTU21D;59066;54.782;32.024;2023-02-28T15:40:56;0.32;88.29
43772;HTU21D;59066;54.782;32.024;2023-02-28T15:43:30;0.33;87.90
43772;HTU21D;59066;54.782;32.024;2023-02-28T15:48:52;0.35;88.09
43772;HTU21D;59066;54.782;32.024;2023-02-28T15:51:32;0.34;87.99
43772;HTU21D;59066;54.782;32.024;2023-02-28T15:54:05;0.34;88.29
43772;HTU21D;59066;54.782;32.024;2023-02-28T15:56:43;0.36;88.13
43772;HTU21D;59066;54.782;32.024;2023-02-28T15:59:21;0.39;88.02
43772;HTU21D;59066;54.782;32.024;2023-02-28T16:05:00;0.47;88.12
43772;HTU21D;59066;54.782;32.024;2023-02-28T16:07:28;0.49;88.04
43772;HTU21D;59066;54.782;32.024;2023-02-28T16:09:55;0.52;88.07
43772;HTU21D;59066;54.782;32.024;2023-02-28T16:12:26;0.52;88.09
43772;HTU21D;59066;54.782;32.024;2023-02-28T16:14:57;0.57;88.05
43772;HTU21D;59066;54.782;32.024;2023-02-28T16:17:26;0.59;87.77
43772;HTU21D;59066;54.782;32.024;2023-02-28T16:19:55;0.64;87.61
43772;HTU21D;59066;54.782;32.024;2023-02-28T16:22:22;0.65;87.64
43772;HTU21D;59066;54.782;32.024;2023-02-28T16:24:50;0.69;87.43
43772;HTU21D;59066;54.782;32.024;2023-02-28T16:27:33;0.71;87.40
43772;HTU21D;59066;54.782;32.024;2023-02-28T16:30:05;0.73;87.27
43772;HTU21D;59066;54.782;32.024;2023-02-28T16:32:35;0.73;87.14
43772;HTU21D;59066;54.782;32.024;2023-02-28T16:35:05;0.79;87.18
43772;HTU21D;59066;54.782;32.024;2023-02-28T16:37:36;0.79;86.90
43772;HTU21D;59066;54.782;32.024;2023-02-28T16:40:05;0.82;86.77
43772;HTU21D;59066;54.782;32.024;2023-02-28T16:42:32;0.83;86.74
43772;HTU21D;59066;54.782;32.024;2023-02-28T16:45:00;0.88;86.82
43772;HTU21D;59066;54.782;32.024;2023-02-28T16:47:27;0.91;86.73
43772;HTU21D;59066;54.782;32.024;2023-02-28T16:49:54;0.93;86.59
43772;HTU21D;59066;54.782;32.024;2023-02-28T16:52:23;0.94;86.77
43772;HTU21D;59066;54.782;32.024;2023-02-28T16:54:53;0.98;86.62
43772;HTU21D;59066;54.782;32.024;2023-02-28T16:57:22;0.98;86.57
43772;HTU21D;59066;54.782;32.024;2023-02-28T16:59:50;0.97;86.71
43772;HTU21D;59066;54.782;32.024;2023-02-28T17:02:19;1.01;86.70
43772;HTU21D;59066;54.782;32.024;2023-02-28T17:04:47;1.01;86.79
43772;HTU21D;59066;54.782;32.024;2023-02-28T17:07:15;1.04;86.93
43772;HTU21D;59066;54.782;32.024;2023-02-28T17:09:44;1.11;86.67
43772;HTU21D;59066;54.782;32.024;2023-02-28T17:12:12;1.07;86.74
43772;HTU21D;59066;54.782;32.024;2023-02-28T17:14:40;1.10;86.80
43772;HTU21D;59066;54.782;32.024;2023-02-28T17:17:09;1.17;86.52
43772;HTU21D;59066;54.782;32.024;2023-02-28T17:19:38;1.14;86.56
43772;HTU21D;59066;54.782;32.024;2023-02-28T17:22:09;1.19;86.61
43772;HTU21D;59066;54.782;32.024;2023-02-28T17:24:36;1.19;86.48
43772;HTU21D;59066;54.782;32.024;2023-02-28T17:27:04;1.20;86.47
43772;HTU21D;59066;54.782;32.024;2023-02-28T17:29:32;1.21;86.64
43772;HTU21D;59066;54.782;32.024;2023-02-28T17:32:02;1.24;86.61
43772;HTU21D;59066;54.782;32.024;2023-02-28T17:34:43;1.33;86.56
43772;HTU21D;59066;54.782;32.024;2023-02-28T17:37:11;1.29;86.49
43772;HTU21D;59066;54.782;32.024;2023-02-28T17:39:38;1.29;86.67
43772;HTU21D;59066;54.782;32.024;2023-02-28T17:42:06;1.31;86.67
43772;HTU21D;59066;54.782;32.024;2023-02-28T17:44:34;1.33;86.83
43772;HTU21D;59066;54.782;32.024;2023-02-28T17:47:02;1.33;86.68